createdAt,value
2024-01-19T00:00:41.458Z,59.18555
2024-01-19T00:01:42.485Z,59.14844
2024-01-19T00:02:41.474Z,59.35156
2024-01-19T00:03:41.444Z,59.27344
2024-01-19T00:04:42.525Z,60.30078
2024-01-19T00:05:41.658Z,60.11719
2024-01-19T00:06:42.488Z,60.08789
2024-01-19T00:07:41.518Z,59.95508
2024-01-19T00:08:41.504Z,59.94922
2024-01-19T00:09:42.499Z,59.90723
2024-01-19T00:10:41.516Z,59.78027
2024-01-19T00:11:42.494Z,60.1709
2024-01-19T00:12:41.527Z,60.11133
2024-01-19T00:13:42.463Z,59.81738
2024-01-19T00:14:41.538Z,59.67871
2024-01-19T00:15:43.014Z,59.66016
2024-01-19T00:16:42.556Z,59.48145
2024-01-19T00:17:41.621Z,59.2832
2024-01-19T00:18:42.487Z,59.37109
2024-01-19T00:19:41.532Z,59.49316
2024-01-19T00:20:41.514Z,59.81152
2024-01-19T00:21:42.556Z,59.92578
2024-01-19T00:22:41.559Z,59.72559
2024-01-19T00:23:42.540Z,59.46777
2024-01-19T00:24:41.499Z,59.48633
2024-01-19T00:25:47.245Z,59.78027
2024-01-19T00:26:41.604Z,59.72363
2024-01-19T00:27:41.510Z,59.77539
2024-01-19T00:28:42.531Z,59.83203
2024-01-19T00:29:41.598Z,59.69531
2024-01-19T00:30:42.517Z,59.63574
2024-01-19T00:31:42.594Z,59.37988
2024-01-19T00:32:41.668Z,59.26953
2024-01-19T00:33:42.575Z,59.6084
2024-01-19T00:34:41.566Z,60.08496
2024-01-19T00:35:42.543Z,60.00781
2024-01-19T00:36:42.628Z,59.94531
2024-01-19T00:37:41.564Z,59.77734
2024-01-19T00:38:42.565Z,59.91992
2024-01-19T00:39:41.518Z,59.80078
2024-01-19T00:40:42.560Z,59.8457
2024-01-19T00:41:42.618Z,59.83301
2024-01-19T00:42:42.585Z,59.58984
2024-01-19T00:43:41.541Z,59.33203
2024-01-19T00:44:41.547Z,59.4541
2024-01-19T00:45:45.360Z,59.39844
2024-01-19T00:46:41.604Z,59.45313
2024-01-19T00:47:42.702Z,59.72266
2024-01-19T00:48:41.642Z,59.5918
2024-01-19T00:49:41.664Z,60.41309
2024-01-19T00:50:45.139Z,60.51855
2024-01-19T00:51:41.569Z,60.61914
2024-01-19T00:52:42.573Z,60.21387
2024-01-19T00:53:41.678Z,60.37598
2024-01-19T00:54:44.913Z,60.14453
2024-01-19T00:55:44.339Z,60.19141
2024-01-19T00:56:41.649Z,60.28711
2024-01-19T00:57:42.600Z,60.01855
2024-01-19T00:58:41.603Z,60.05566
2024-01-19T00:59:42.625Z,59.66797
2024-01-19T01:00:44.166Z,59.47266
2024-01-19T01:01:41.571Z,59.40527
2024-01-19T01:02:42.662Z,59.47754
2024-01-19T01:03:41.689Z,59.21094
2024-01-19T01:04:42.610Z,59.3125
2024-01-19T01:05:59.567Z,59.2207
2024-01-19T01:06:41.755Z,59.32617
2024-01-19T01:07:42.569Z,59.15527
2024-01-19T01:08:41.621Z,59.34961
2024-01-19T01:09:42.624Z,59.24121
2024-01-19T01:10:43.821Z,59.15918
2024-01-19T01:11:42.643Z,59.28809
2024-01-19T01:12:41.626Z,59.06445
2024-01-19T01:13:41.588Z,59.08789
2024-01-19T01:14:42.613Z,59.3916
2024-01-19T01:15:43.631Z,59.74609
2024-01-19T01:16:42.590Z,59.64648
2024-01-19T01:17:41.773Z,59.24707
2024-01-19T01:18:41.733Z,59.22656
2024-01-19T01:19:42.670Z,59.01172
2024-01-19T01:20:43.545Z,58.99023
2024-01-19T01:21:42.601Z,59.05371
2024-01-19T01:22:41.667Z,59.38672
2024-01-19T01:23:48.945Z,59.22852
2024-01-19T01:24:41.618Z,58.94434
2024-01-19T01:25:43.126Z,58.65918
2024-01-19T01:26:42.747Z,58.77832
2024-01-19T01:27:41.611Z,58.91309
2024-01-19T01:28:42.665Z,58.69727
2024-01-19T01:29:41.691Z,58.7832
2024-01-19T01:30:42.887Z,58.71387
2024-01-19T01:31:42.707Z,58.47461
2024-01-19T01:32:41.856Z,58.66992
2024-01-19T01:33:42.688Z,58.59473
2024-01-19T01:34:41.695Z,58.55664
2024-01-19T01:35:42.785Z,58.30859
2024-01-19T01:36:42.704Z,57.9834
2024-01-19T01:37:41.690Z,58.1582
2024-01-19T01:38:42.711Z,58.30469
2024-01-19T01:39:41.647Z,58.13281
2024-01-19T01:40:42.694Z,58.1748
2024-01-19T01:41:41.676Z,58.44141
2024-01-19T01:42:41.665Z,58.42773
2024-01-19T01:43:42.696Z,58.54297
2024-01-19T01:44:41.722Z,58.37402
2024-01-19T01:45:42.655Z,58.24414
2024-01-19T01:46:42.141Z,58.27051
2024-01-19T01:47:41.721Z,58.35156
2024-01-19T01:48:42.867Z,58.50684
2024-01-19T01:49:41.790Z,58.37012
2024-01-19T01:50:42.710Z,58.58887
2024-01-19T01:51:41.671Z,58.98633
2024-01-19T01:52:45.190Z,58.91504
2024-01-19T01:53:41.747Z,58.74316
2024-01-19T01:54:41.685Z,58.85352
2024-01-19T01:55:42.718Z,58.77246
2024-01-19T01:56:41.752Z,58.68066
2024-01-19T01:57:42.755Z,58.55664
2024-01-19T01:58:41.683Z,58.6582
2024-01-19T01:59:41.770Z,58.96777
2024-01-19T02:00:42.738Z,59.18457
2024-01-19T02:01:41.699Z,59.72949
2024-01-19T02:02:42.758Z,59.55273
2024-01-19T02:03:41.753Z,59.60156
2024-01-19T02:04:41.692Z,59.52246
2024-01-19T02:05:42.916Z,59.52344
2024-01-19T02:06:41.906Z,59.62012
2024-01-19T02:07:43.102Z,59.72656
2024-01-19T02:08:41.797Z,59.75391
2024-01-19T02:09:42.980Z,59.57227
2024-01-19T02:10:42.736Z,59.99512
2024-01-19T02:11:41.790Z,59.83105
2024-01-19T02:12:42.723Z,59.54199
2024-01-19T02:13:41.750Z,59.57617
2024-01-19T02:14:42.733Z,59.43262
2024-01-19T02:15:42.726Z,59.47363
2024-01-19T02:16:41.720Z,59.51953
2024-01-19T02:17:42.806Z,59.28223
2024-01-19T02:18:42.026Z,59.23047
2024-01-19T02:19:42.760Z,59.56836
2024-01-19T02:20:42.790Z,59.45801
2024-01-19T02:21:45.469Z,59.48828
2024-01-19T02:22:41.732Z,59.33105
2024-01-19T02:23:41.799Z,59.61719
2024-01-19T02:24:42.774Z,59.83008
2024-01-19T02:25:42.734Z,59.86621
2024-01-19T02:26:42.745Z,59.84668
2024-01-19T02:27:41.749Z,60.46582
2024-01-19T02:28:41.739Z,60.25586
2024-01-19T02:29:42.831Z,60.33301
2024-01-19T02:30:42.745Z,60.09375
2024-01-19T02:31:42.806Z,60.2334
2024-01-19T02:32:41.810Z,59.93945
2024-01-19T02:33:41.785Z,59.93262
2024-01-19T02:34:42.768Z,60.03906
2024-01-19T02:35:42.842Z,60.08301
2024-01-19T02:36:42.812Z,60.44336
2024-01-19T02:37:41.800Z,60.18262
2024-01-19T02:38:42.862Z,60.26563
2024-01-19T02:39:41.771Z,60.26563
2024-01-19T02:40:42.799Z,60.21484
2024-01-19T02:41:42.905Z,60.33691
2024-01-19T02:42:41.781Z,60.4707
2024-01-19T02:43:42.823Z,60.47949
2024-01-19T02:44:41.795Z,60.60547
2024-01-19T02:45:42.811Z,60.70117
2024-01-19T02:46:42.815Z,60.96582
2024-01-19T02:47:41.865Z,61.14355
2024-01-19T02:48:42.923Z,61.13477
2024-01-19T02:49:41.842Z,61.0332
2024-01-19T02:50:45.209Z,60.67871
2024-01-19T02:51:41.791Z,60.84082
2024-01-19T02:52:41.843Z,60.89844
2024-01-19T02:53:42.829Z,61.15723
2024-01-19T02:54:41.796Z,61.04492
2024-01-19T02:55:50.801Z,60.80078
2024-01-19T02:56:41.857Z,61.0752
2024-01-19T02:57:41.796Z,61.01758
2024-01-19T02:58:42.836Z,61.31641
2024-01-19T02:59:41.848Z,61.29199
2024-01-19T03:00:42.847Z,60.95898
2024-01-19T03:01:41.823Z,61.15723
2024-01-19T03:02:41.821Z,61.47461
2024-01-19T03:03:42.832Z,61.5459
2024-01-19T03:04:41.860Z,61.38184
2024-01-19T03:05:42.880Z,61.2793
2024-01-19T03:06:41.867Z,61.43164
2024-01-19T03:07:42.855Z,61.28223
2024-01-19T03:08:41.892Z,61.14941
2024-01-19T03:09:41.834Z,61.11719
2024-01-19T03:10:42.855Z,61.04297
2024-01-19T03:11:41.837Z,61.10742
2024-01-19T03:12:42.861Z,61.0752
2024-01-19T03:13:41.874Z,61.24707
2024-01-19T03:14:41.888Z,61.2168
2024-01-19T03:15:42.893Z,61.19824
2024-01-19T03:16:41.841Z,61.54688
2024-01-19T03:17:42.953Z,61.38965
2024-01-19T03:18:41.874Z,61.47656
2024-01-19T03:19:45.228Z,61.22656
2024-01-19T03:20:42.879Z,61.36035
2024-01-19T03:21:41.906Z,61.41309
2024-01-19T03:22:42.847Z,61.44238
2024-01-19T03:23:41.924Z,61.12207
2024-01-19T03:24:42.856Z,61.52148
2024-01-19T03:25:42.904Z,61.50098
2024-01-19T03:26:41.920Z,61.61328
2024-01-19T03:27:42.880Z,61.65332
2024-01-19T03:28:41.910Z,61.37109
2024-01-19T03:29:42.904Z,61.26758
2024-01-19T03:30:42.888Z,61.46582
2024-01-19T03:31:41.874Z,61.95508
2024-01-19T03:32:42.944Z,62.05664
2024-01-19T03:33:41.945Z,62.39258
2024-01-19T03:34:42.880Z,62.18359
2024-01-19T03:35:42.923Z,62.05664
2024-01-19T03:36:42.901Z,62.1582
2024-01-19T03:37:41.916Z,62.42578
2024-01-19T03:38:41.905Z,62.43066
2024-01-19T03:39:42.934Z,62.30859
2024-01-19T03:40:42.926Z,62.24707
2024-01-19T03:41:42.935Z,62.42285
2024-01-19T03:42:41.877Z,62.28613
2024-01-19T03:43:41.920Z,62.09863
2024-01-19T03:44:42.924Z,62.00684
2024-01-19T03:45:42.919Z,61.78223
2024-01-19T03:46:42.930Z,62.2002
2024-01-19T03:47:41.996Z,62.43848
2024-01-19T03:48:45.452Z,62.48633
2024-01-19T03:49:41.927Z,62.11035
2024-01-19T03:50:42.968Z,62.25391
2024-01-19T03:51:42.957Z,62.5791
2024-01-19T03:52:41.947Z,62.50098
2024-01-19T03:53:42.992Z,62.41406
2024-01-19T03:54:41.921Z,62.40137
2024-01-19T03:55:42.953Z,62.18848
2024-01-19T03:56:43.026Z,62.62891
2024-01-19T03:57:41.911Z,62.61328
2024-01-19T03:58:42.917Z,62.22266
2024-01-19T03:59:41.986Z,62.70996
2024-01-19T04:00:43.008Z,62.50488
2024-01-19T04:01:42.954Z,62.94238
2024-01-19T04:02:42.112Z,62.63281
2024-01-19T04:03:43.058Z,62.75684
2024-01-19T04:04:41.976Z,62.79492
2024-01-19T04:05:44.375Z,62.85449
2024-01-19T04:06:41.991Z,62.91016
2024-01-19T04:07:41.936Z,62.9043
2024-01-19T04:08:43.006Z,62.87695
2024-01-19T04:09:41.968Z,62.79395
2024-01-19T04:10:42.978Z,62.60156
2024-01-19T04:11:42.022Z,62.77832
2024-01-19T04:12:41.940Z,62.75488
2024-01-19T04:13:42.963Z,62.68066
2024-01-19T04:14:42.014Z,62.64453
2024-01-19T04:15:42.945Z,62.49609
2024-01-19T04:16:41.945Z,62.69922
2024-01-19T04:17:45.372Z,62.78223
2024-01-19T04:18:42.033Z,62.65527
2024-01-19T04:19:42.040Z,62.54199
2024-01-19T04:20:43.052Z,61.88574
2024-01-19T04:21:41.967Z,62.43457
2024-01-19T04:22:42.981Z,62.54297
2024-01-19T04:23:42.045Z,62.34863
2024-01-19T04:24:41.962Z,62.24316
2024-01-19T04:25:42.987Z,62.27539
2024-01-19T04:26:42.034Z,62.47461
2024-01-19T04:27:43.007Z,62.64648
2024-01-19T04:28:42.020Z,62.47461
2024-01-19T04:29:42.046Z,62.60449
2024-01-19T04:30:43.007Z,62.54492
2024-01-19T04:31:42.012Z,62.58301
2024-01-19T04:32:43.096Z,62.67383
2024-01-19T04:33:42.083Z,62.52637
2024-01-19T04:34:43.051Z,62.33105
2024-01-19T04:35:43.101Z,62.25879
2024-01-19T04:36:41.991Z,62.4043
2024-01-19T04:37:42.984Z,62.7373
2024-01-19T04:38:42.000Z,62.39258
2024-01-19T04:39:42.985Z,62.18652
2024-01-19T04:40:43.022Z,61.93066
2024-01-19T04:41:42.080Z,61.91602
2024-01-19T04:42:43.036Z,62.00391
2024-01-19T04:43:42.050Z,62.10059
2024-01-19T04:44:43.016Z,61.91309
2024-01-19T04:45:43.029Z,61.80957
2024-01-19T04:46:45.420Z,62.13184
2024-01-19T04:47:42.113Z,62.08301
2024-01-19T04:48:42.249Z,62.03418
2024-01-19T04:49:43.001Z,61.9082
2024-01-19T04:50:43.064Z,61.71875
2024-01-19T04:51:43.070Z,61.97461
2024-01-19T04:52:42.024Z,62.19434
2024-01-19T04:53:42.118Z,62.12305
2024-01-19T04:54:43.093Z,61.99219
2024-01-19T04:55:43.043Z,61.9375
2024-01-19T04:56:45.202Z,62.0459
2024-01-19T04:57:42.028Z,62.16016
2024-01-19T04:58:42.084Z,62.3252
2024-01-19T04:59:43.082Z,62.01855
2024-01-19T05:00:43.051Z,62.16699
2024-01-19T05:01:43.024Z,62.37305
2024-01-19T05:02:42.104Z,62.1748
2024-01-19T05:03:43.075Z,62.2334
2024-01-19T05:04:42.111Z,62.35742
2024-01-19T05:05:43.119Z,62.21777
2024-01-19T05:06:43.134Z,62.66699
2024-01-19T05:07:42.056Z,62.50879
2024-01-19T05:08:43.139Z,62.41016
2024-01-19T05:09:42.060Z,62.04102
2024-01-19T05:10:53.034Z,61.95508
2024-01-19T05:11:43.148Z,62.21973
2024-01-19T05:12:42.065Z,62.38281
2024-01-19T05:13:43.110Z,62.50488
2024-01-19T05:14:42.078Z,62.58301
2024-01-19T05:15:46.381Z,62.11133
2024-01-19T05:16:42.107Z,62.2627
2024-01-19T05:17:42.199Z,62.30176
2024-01-19T05:18:43.150Z,62.31543
2024-01-19T05:19:42.140Z,62.31055
2024-01-19T05:20:43.102Z,62.11426
2024-01-19T05:21:42.076Z,62.50781
2024-01-19T05:22:42.120Z,62.37305
2024-01-19T05:23:43.196Z,62.56055
2024-01-19T05:24:42.085Z,62.56055
2024-01-19T05:25:43.111Z,62.20215
2024-01-19T05:26:42.162Z,62.40234
2024-01-19T05:27:42.094Z,62.02637
2024-01-19T05:28:43.141Z,62.32227
2024-01-19T05:29:42.251Z,62.27051
2024-01-19T05:30:43.090Z,62.24023
2024-01-19T05:31:42.159Z,62.34668
2024-01-19T05:32:43.249Z,62.44922
2024-01-19T05:33:42.275Z,62.40039
2024-01-19T05:34:42.124Z,62.16211
2024-01-19T05:35:43.176Z,61.92676
2024-01-19T05:36:42.118Z,61.97363
2024-01-19T05:37:43.097Z,61.80371
2024-01-19T05:38:42.154Z,61.4834
2024-01-19T05:39:42.114Z,61.61719
2024-01-19T05:40:43.146Z,61.51074
2024-01-19T05:41:42.193Z,61.7832
2024-01-19T05:42:43.107Z,61.76855
2024-01-19T05:43:42.164Z,61.74805
2024-01-19T05:44:46.443Z,61.71777
2024-01-19T05:45:43.124Z,61.52246
2024-01-19T05:46:42.168Z,61.61523
2024-01-19T05:47:43.222Z,61.79785
2024-01-19T05:48:42.214Z,61.68066
2024-01-19T05:49:43.262Z,61.76465
2024-01-19T05:50:43.258Z,61.59863
2024-01-19T05:51:42.144Z,61.91016
2024-01-19T05:52:43.220Z,61.87012
2024-01-19T05:53:42.230Z,61.84277
2024-01-19T05:54:43.177Z,61.93066
2024-01-19T05:55:43.153Z,61.7168
2024-01-19T05:56:42.214Z,61.91992
2024-01-19T05:57:43.145Z,61.78125
2024-01-19T05:58:42.152Z,61.95313
2024-01-19T05:59:43.220Z,62.02344
2024-01-19T06:00:43.245Z,61.8457
2024-01-19T06:01:44.579Z,61.95215
2024-01-19T06:02:42.221Z,61.79102
2024-01-19T06:03:42.187Z,61.56152
2024-01-19T06:04:43.190Z,61.41309
2024-01-19T06:05:43.268Z,61.25195
2024-01-19T06:06:43.266Z,61.39648
2024-01-19T06:07:42.187Z,61.39746
2024-01-19T06:08:42.262Z,61.30371
2024-01-19T06:09:45.494Z,61.24902
2024-01-19T06:10:44.669Z,60.97559
2024-01-19T06:11:43.237Z,61.30664
2024-01-19T06:12:42.187Z,61.28418
2024-01-19T06:14:00.517Z,61.3623
2024-01-19T06:14:42.220Z,61.3252
2024-01-19T06:15:43.170Z,61.00781
2024-01-19T06:16:43.225Z,61.12891
2024-01-19T06:17:42.280Z,61.2334
2024-01-19T06:18:43.332Z,61.03906
2024-01-19T06:19:42.301Z,60.93359
2024-01-19T06:20:43.334Z,60.88281
2024-01-19T06:21:43.220Z,61.11426
2024-01-19T06:22:42.247Z,61.07324
2024-01-19T06:23:43.256Z,61.10547
2024-01-19T06:24:42.218Z,61.08496
2024-01-19T06:25:43.409Z,60.96387
2024-01-19T06:26:43.254Z,61.125
2024-01-19T06:27:42.202Z,61.01855
2024-01-19T06:28:43.256Z,60.9873
2024-01-19T06:29:42.228Z,61
2024-01-19T06:30:44.662Z,60.93262
2024-01-19T06:31:42.270Z,61.1709
2024-01-19T06:32:42.305Z,61.05371
2024-01-19T06:33:43.318Z,61.00684
2024-01-19T06:34:42.219Z,60.87207
2024-01-19T06:35:43.400Z,61.07813
2024-01-19T06:36:42.226Z,61.33887
2024-01-19T06:37:42.273Z,61.22852
2024-01-19T06:38:43.342Z,61.19043
2024-01-19T06:39:42.234Z,60.92285
2024-01-19T06:40:43.235Z,60.83984
2024-01-19T06:41:42.306Z,61.21191
2024-01-19T06:42:45.990Z,61.18164
2024-01-19T06:43:42.275Z,61.31445
2024-01-19T06:44:42.310Z,61.27832
2024-01-19T06:45:43.294Z,60.89551
2024-01-19T06:46:42.293Z,61.37598
2024-01-19T06:47:43.397Z,61.29492
2024-01-19T06:48:42.358Z,61.33008
2024-01-19T06:49:42.280Z,61.19922
2024-01-19T06:50:43.281Z,61.08496
2024-01-19T06:51:42.269Z,61.05273
2024-01-19T06:52:43.295Z,61.20703
2024-01-19T06:53:42.309Z,61.06055
2024-01-19T06:54:42.255Z,61.11719
2024-01-19T06:55:43.301Z,60.78223
2024-01-19T06:56:42.362Z,61.24805
2024-01-19T06:57:43.327Z,61.46973
2024-01-19T06:58:42.325Z,61.56836
2024-01-19T06:59:44.969Z,61.64355
2024-01-19T07:00:46.182Z,61.40137
2024-01-19T07:01:42.273Z,61.71875
2024-01-19T07:02:43.345Z,61.76953
2024-01-19T07:03:42.344Z,61.74316
2024-01-19T07:04:43.349Z,61.66309
2024-01-19T07:05:43.369Z,61.44922
2024-01-19T07:06:42.431Z,61.56543
2024-01-19T07:07:43.313Z,61.65137
2024-01-19T07:08:42.346Z,61.55957
2024-01-19T07:09:43.311Z,61.54297
2024-01-19T07:10:43.305Z,61.34961
2024-01-19T07:11:45.719Z,61.53027
2024-01-19T07:12:42.286Z,61.74512
2024-01-19T07:13:42.292Z,61.68555
2024-01-19T07:14:43.397Z,61.59961
2024-01-19T07:15:43.291Z,61.51465
2024-01-19T07:16:43.353Z,61.66113
2024-01-19T07:17:42.384Z,61.66309
2024-01-19T07:18:42.403Z,61.60254
2024-01-19T07:19:43.594Z,61.64941
2024-01-19T07:20:43.362Z,61.62207
2024-01-19T07:21:43.317Z,61.93848
2024-01-19T07:22:42.358Z,62.0459
2024-01-19T07:23:42.341Z,61.75195
2024-01-19T07:24:43.360Z,61.89258
2024-01-19T07:25:43.322Z,61.65527
2024-01-19T07:26:43.379Z,61.70605
2024-01-19T07:27:42.317Z,61.72363
2024-01-19T07:28:44.664Z,61.34277
2024-01-19T07:29:44.824Z,61.28223
2024-01-19T07:30:43.360Z,61.24707
2024-01-19T07:31:43.412Z,61.29199
2024-01-19T07:32:52.255Z,61.34668
2024-01-19T07:33:43.467Z,61.24512
2024-01-19T07:34:42.407Z,61.29395
2024-01-19T07:35:43.542Z,61.26563
2024-01-19T07:36:43.491Z,61.4248
2024-01-19T07:37:42.359Z,60.72656
2024-01-19T07:38:43.446Z,60.89258
2024-01-19T07:39:42.371Z,60.67383
2024-01-19T07:40:49.959Z,60.71094
2024-01-19T07:41:42.527Z,60.84863
2024-01-19T07:42:53.241Z,60.69922
2024-01-19T07:43:43.396Z,61.07324
2024-01-19T07:44:42.454Z,61.08105
2024-01-19T07:46:06.563Z,60.96191
2024-01-19T07:46:42.409Z,60.95898
2024-01-19T07:47:53.269Z,60.76758
2024-01-19T07:48:43.778Z,60.5957
2024-01-19T07:49:42.414Z,60.61035
2024-01-19T07:50:43.409Z,60.52246
2024-01-19T07:51:43.369Z,60.44238
2024-01-19T07:52:42.387Z,60.55957
2024-01-19T07:53:43.396Z,60.70801
2024-01-19T07:54:42.372Z,60.73145
2024-01-19T07:55:43.380Z,60.73438
2024-01-19T07:56:42.431Z,60.95898
2024-01-19T07:57:43.433Z,60.97949
2024-01-19T07:58:42.437Z,60.79102
2024-01-19T07:59:42.498Z,61.01367
2024-01-19T08:00:43.548Z,60.93359
2024-01-19T08:01:42.399Z,61.16699
2024-01-19T08:02:43.618Z,61.04688
2024-01-19T08:03:42.452Z,60.7793
2024-01-19T08:04:42.402Z,60.41309
2024-01-19T08:05:43.484Z,59.99902
2024-01-19T08:06:42.467Z,60.16895
2024-01-19T08:07:43.453Z,60.2793
2024-01-19T08:08:42.453Z,60.2627
2024-01-19T08:09:45.829Z,60.18945
2024-01-19T08:10:43.460Z,59.83008
2024-01-19T08:11:42.481Z,59.76367
2024-01-19T08:12:43.453Z,59.69336
2024-01-19T08:13:42.443Z,59.83496
2024-01-19T08:14:43.518Z,59.71973
2024-01-19T08:15:43.487Z,59.82227
2024-01-19T08:16:42.434Z,60.07617
2024-01-19T08:18:43.646Z,60.17676
2024-01-19T08:19:43.547Z,60.50391
2024-01-19T08:20:43.538Z,60.40723
2024-01-19T08:21:42.457Z,60.38574
2024-01-19T08:22:43.539Z,60.24023
2024-01-19T08:23:42.457Z,60.33398
2024-01-19T08:24:43.572Z,60.56836
2024-01-19T08:25:43.523Z,60.62109
2024-01-19T08:26:43.507Z,60.62891
2024-01-19T08:27:42.457Z,60.75684
2024-01-19T08:28:42.463Z,60.95898
2024-01-19T08:29:43.489Z,61.0166
2024-01-19T08:30:43.603Z,60.81836
2024-01-19T08:31:43.607Z,60.95215
2024-01-19T08:32:42.532Z,60.91699
2024-01-19T08:33:42.635Z,60.85156
2024-01-19T08:34:43.580Z,61.19531
2024-01-19T08:35:43.498Z,60.9375
2024-01-19T08:36:43.568Z,61.07324
2024-01-19T08:37:42.561Z,60.94336
2024-01-19T08:38:45.932Z,61.03125
2024-01-19T08:39:42.484Z,60.91602
2024-01-19T08:40:43.517Z,60.50977
2024-01-19T08:41:43.694Z,60.60449
2024-01-19T08:42:42.492Z,60.62988
2024-01-19T08:43:43.556Z,60.47461
2024-01-19T08:44:42.532Z,60.50098
2024-01-19T08:45:43.566Z,60.55566
2024-01-19T08:46:43.511Z,60.50781
2024-01-19T08:47:42.573Z,60.71387
2024-01-19T08:48:43.668Z,60.78418
2024-01-19T08:49:42.567Z,60.66699
2024-01-19T08:50:43.586Z,60.625
2024-01-19T08:51:44.879Z,60.62109
2024-01-19T08:52:53.422Z,60.20605
2024-01-19T08:53:43.554Z,59.96484
2024-01-19T08:54:42.504Z,59.82324
2024-01-19T08:55:43.614Z,59.83594
2024-01-19T08:56:49.295Z,60.09668
2024-01-19T08:57:43.565Z,59.9707
2024-01-19T08:58:43.513Z,60.07813
2024-01-19T08:59:42.629Z,60.24121
2024-01-19T09:00:43.579Z,60.24316
2024-01-19T09:01:42.518Z,60.22754
2024-01-19T09:02:49.740Z,59.9707
2024-01-19T09:03:43.567Z,60.13086
2024-01-19T09:04:42.586Z,60.27051
2024-01-19T09:05:43.647Z,60.27637
2024-01-19T09:06:45.388Z,60.55566
2024-01-19T09:07:45.963Z,60.17188
2024-01-19T09:08:42.655Z,60.11133
2024-01-19T09:09:42.526Z,60.10059
2024-01-19T09:10:43.580Z,60.05664
2024-01-19T09:11:42.639Z,60.0498
2024-01-19T09:12:43.539Z,59.68555
2024-01-19T09:13:42.559Z,59.71973
2024-01-19T09:14:42.571Z,59.71387
2024-01-19T09:15:43.533Z,59.58496
2024-01-19T09:16:42.579Z,59.53613
2024-01-19T09:17:43.624Z,59.38184
2024-01-19T09:18:42.849Z,59.33398
2024-01-19T09:19:42.566Z,59.02734
2024-01-19T09:20:43.649Z,59.12793
2024-01-19T09:21:42.552Z,59.30078
2024-01-19T09:22:43.583Z,59.45605
2024-01-19T09:23:42.575Z,59.74023
2024-01-19T09:24:46.402Z,59.7793
2024-01-19T09:25:43.621Z,59.66309
2024-01-19T09:26:42.662Z,60.01953
2024-01-19T09:27:43.555Z,59.94531
2024-01-19T09:28:42.602Z,59.88867
2024-01-19T09:29:43.636Z,59.6377
2024-01-19T09:30:43.644Z,59.58887
2024-01-19T09:31:42.612Z,59.67578
2024-01-19T09:32:43.713Z,59.70117
2024-01-19T09:33:42.679Z,59.95508
2024-01-19T09:35:44.768Z,59.90527
2024-01-19T09:36:46.054Z,59.66309
2024-01-19T09:37:42.575Z,59.38477
2024-01-19T09:38:42.656Z,58.98926
2024-01-19T09:39:43.596Z,59.22461
2024-01-19T09:40:43.629Z,59.38574
2024-01-19T09:41:43.705Z,59.34473
2024-01-19T09:42:42.608Z,59.31055
2024-01-19T09:43:42.595Z,59.25391
2024-01-19T09:44:43.661Z,59.10254
2024-01-19T09:45:43.630Z,59.01367
2024-01-19T09:48:43.737Z,58.74707
2024-01-19T09:49:43.738Z,59.11035
2024-01-19T09:50:43.718Z,59.14648
2024-01-19T09:51:43.803Z,59.26953
2024-01-19T09:52:42.678Z,59.36914
2024-01-19T09:53:48.661Z,59.46484
2024-01-19T09:54:42.652Z,59.54883
2024-01-19T09:55:43.770Z,59.71387
2024-01-19T09:56:43.731Z,59.97754
2024-01-19T09:57:42.626Z,59.81152
2024-01-19T09:58:43.644Z,59.79297
2024-01-19T09:59:42.702Z,59.56836
2024-01-19T10:00:43.674Z,59.71289
2024-01-19T10:01:43.621Z,59.81152
2024-01-19T10:02:42.699Z,59.54004
2024-01-19T10:03:43.719Z,59.50488
2024-01-19T10:04:42.724Z,59.22754
2024-01-19T10:05:46.350Z,59.25586
2024-01-19T10:06:42.731Z,59.25098
2024-01-19T10:07:42.657Z,59.48047
2024-01-19T10:08:43.695Z,59.58496
2024-01-19T10:09:42.657Z,59.2041
2024-01-19T10:10:43.652Z,59.0957
2024-01-19T10:11:42.780Z,59.0625
2024-01-19T10:12:42.657Z,59.11328
2024-01-19T10:13:43.688Z,59.33203
2024-01-19T10:14:42.725Z,59.38086
2024-01-19T10:15:43.661Z,59.36328
2024-01-19T10:16:42.664Z,59.72559
2024-01-19T10:17:42.808Z,59.73438
2024-01-19T10:18:43.892Z,60.00488
2024-01-19T10:19:42.712Z,60.00684
2024-01-19T10:20:43.704Z,59.8584
2024-01-19T10:21:42.665Z,60.02441
2024-01-19T10:22:55.721Z,59.80371
2024-01-19T10:23:42.736Z,59.65234
2024-01-19T10:24:42.678Z,59.41602
2024-01-19T10:25:43.746Z,59.18457
2024-01-19T10:26:42.759Z,58.93262
2024-01-19T10:27:44.786Z,59.05469
2024-01-19T10:28:42.739Z,58.94043
2024-01-19T10:29:42.716Z,59.03027
2024-01-19T10:30:43.734Z,59.1543
2024-01-19T10:31:42.710Z,59.34375
2024-01-19T10:32:43.799Z,59.26074
2024-01-19T10:33:42.917Z,59.23242
2024-01-19T10:35:00.050Z,59.07813
2024-01-19T10:35:43.714Z,58.86621
2024-01-19T10:36:42.703Z,58.75391
2024-01-19T10:37:43.791Z,58.53613
2024-01-19T10:38:42.717Z,58.73438
2024-01-19T10:39:43.712Z,58.89355
2024-01-19T10:40:43.707Z,58.81152
2024-01-19T10:41:42.812Z,59.14258
2024-01-19T10:42:43.821Z,59.19141
2024-01-19T10:43:42.718Z,59.28516
2024-01-19T10:44:43.823Z,59.28809
2024-01-19T10:45:43.741Z,59.19629
2024-01-19T10:46:42.788Z,59.27441
2024-01-19T10:47:43.844Z,59.1416
2024-01-19T10:48:42.817Z,58.44727
2024-01-19T10:49:43.775Z,59.03516
2024-01-19T10:50:43.808Z,59.03125
2024-01-19T10:51:43.838Z,59.52734
2024-01-19T10:52:42.729Z,59.25195
2024-01-19T10:53:42.798Z,59.08203
2024-01-19T10:54:43.760Z,58.91699
2024-01-19T10:55:43.792Z,58.92773
2024-01-19T10:56:43.968Z,59.36816
2024-01-19T10:57:42.742Z,59.41504
2024-01-19T10:58:42.797Z,59.48535
2024-01-19T10:59:43.774Z,59.41211
2024-01-19T11:00:43.841Z,59.41016
2024-01-19T11:01:43.929Z,59.47949
2024-01-19T11:02:42.789Z,59.4375
2024-01-19T11:03:46.695Z,59.58008
2024-01-19T11:04:42.761Z,59.58984
2024-01-19T11:05:43.952Z,59.49219
2024-01-19T11:06:43.966Z,59.58984
2024-01-19T11:07:42.814Z,59.54785
2024-01-19T11:08:43.793Z,59.3418
2024-01-19T11:09:42.766Z,59.12305
2024-01-19T11:10:46.144Z,59.09961
2024-01-19T11:11:43.891Z,59.03906
2024-01-19T11:12:42.785Z,59.07324
2024-01-19T11:13:43.851Z,59.09961
2024-01-19T11:14:42.823Z,59.18359
2024-01-19T11:15:43.821Z,59.19434
2024-01-19T11:16:43.783Z,59.38184
2024-01-19T11:17:42.894Z,59.22363
2024-01-19T11:18:43.993Z,59.00586
2024-01-19T11:19:42.803Z,58.99707
2024-01-19T11:20:43.847Z,59.11133
2024-01-19T11:21:42.808Z,59.23633
2024-01-19T11:22:44.843Z,59.38672
2024-01-19T11:23:44.072Z,59.22363
2024-01-19T11:24:42.885Z,59.5
2024-01-19T11:25:43.947Z,59.38867
2024-01-19T11:26:42.947Z,59.54785
2024-01-19T11:27:42.916Z,59.50391
2024-01-19T11:28:43.839Z,59.52344
2024-01-19T11:29:42.917Z,59.48438
2024-01-19T11:30:43.931Z,59.5127
2024-01-19T11:31:42.866Z,59.91895
2024-01-19T11:32:46.438Z,60.16016
2024-01-19T11:33:43.040Z,59.95801
2024-01-19T11:34:43.069Z,59.86035
2024-01-19T11:35:44.019Z,59.71191
2024-01-19T11:36:42.876Z,59.76758
2024-01-19T11:37:48.540Z,59.56641
2024-01-19T11:38:42.861Z,59.65527
2024-01-19T11:39:42.846Z,59.64746
2024-01-19T11:40:43.856Z,59.52344
2024-01-19T11:41:42.911Z,59.95996
2024-01-19T11:42:50.636Z,59.59375
2024-01-19T11:43:42.838Z,59.6543
2024-01-19T11:44:42.921Z,59.92188
2024-01-19T11:45:43.900Z,59.91309
2024-01-19T11:46:42.841Z,60.19824
2024-01-19T11:47:44.264Z,60.25879
2024-01-19T11:48:43.003Z,60.35742
2024-01-19T11:49:50.745Z,60.35254
2024-01-19T11:50:43.870Z,60.13477